sensor_id;sensor_type;location;lat;lon;timestamp;P1;durP1;ratioP1;P2;durP2;ratioP2
37955;SDS011;23776;51.592;7.180;2023-04-23T00:02:02;83.20;;;36.05;;
37955;SDS011;23776;51.592;7.180;2023-04-23T00:04:30;77.97;;;35.53;;
37955;SDS011;23776;51.592;7.180;2023-04-23T00:07:01;84.32;;;36.50;;
37955;SDS011;23776;51.592;7.180;2023-04-23T00:09:28;82.93;;;36.72;;
37955;SDS011;23776;51.592;7.180;2023-04-23T00:11:55;91.55;;;38.17;;
37955;SDS011;23776;51.592;7.180;2023-04-23T00:14:22;88.45;;;37.63;;
37955;SDS011;23776;51.592;7.180;2023-04-23T00:16:48;84.95;;;37.60;;
37955;SDS011;23776;51.592;7.180;2023-04-23T00:19:14;86.85;;;37.58;;
37955;SDS011;23776;51.592;7.180;2023-04-23T00:21:39;85.45;;;37.90;;
37955;SDS011;23776;51.592;7.180;2023-04-23T00:24:05;84.63;;;37.80;;
37955;SDS011;23776;51.592;7.180;2023-04-23T00:26:31;75.40;;;34.45;;
37955;SDS011;23776;51.592;7.180;2023-04-23T00:28:57;86.05;;;38.60;;
37955;SDS011;23776;51.592;7.180;2023-04-23T00:31:23;87.03;;;39.30;;
37955;SDS011;23776;51.592;7.180;2023-04-23T00:33:51;93.00;;;37.10;;
37955;SDS011;23776;51.592;7.180;2023-04-23T00:36:17;85.38;;;37.08;;
37955;SDS011;23776;51.592;7.180;2023-04-23T00:38:42;90.20;;;36.42;;
37955;SDS011;23776;51.592;7.180;2023-04-23T00:41:08;91.18;;;38.17;;
37955;SDS011;23776;51.592;7.180;2023-04-23T00:43:34;88.55;;;37.17;;
37955;SDS011;23776;51.592;7.180;2023-04-23T00:46:00;93.35;;;39.35;;
37955;SDS011;23776;51.592;7.180;2023-04-23T00:48:27;83.07;;;38.00;;
37955;SDS011;23776;51.592;7.180;2023-04-23T00:51:02;83.38;;;37.35;;
37955;SDS011;23776;51.592;7.180;2023-04-23T00:53:28;86.85;;;37.60;;
37955;SDS011;23776;51.592;7.180;2023-04-23T00:55:54;89.10;;;38.72;;
37955;SDS011;23776;51.592;7.180;2023-04-23T00:58:21;85.68;;;38.15;;
37955;SDS011;23776;51.592;7.180;2023-04-23T01:00:47;93.22;;;38.90;;
37955;SDS011;23776;51.592;7.180;2023-04-23T01:03:15;88.38;;;37.97;;
37955;SDS011;23776;51.592;7.180;2023-04-23T01:05:42;90.65;;;39.05;;
37955;SDS011;23776;51.592;7.180;2023-04-23T01:08:13;91.25;;;39.70;;
37955;SDS011;23776;51.592;7.180;2023-04-23T01:10:40;93.93;;;41.20;;
37955;SDS011;23776;51.592;7.180;2023-04-23T01:13:10;97.03;;;41.67;;
37955;SDS011;23776;51.592;7.180;2023-04-23T01:15:37;96.47;;;39.92;;
37955;SDS011;23776;51.592;7.180;2023-04-23T01:18:03;105.15;;;40.63;;
37955;SDS011;23776;51.592;7.180;2023-04-23T01:20:31;101.07;;;41.63;;
37955;SDS011;23776;51.592;7.180;2023-04-23T01:22:58;100.53;;;40.35;;
37955;SDS011;23776;51.592;7.180;2023-04-23T01:25:24;93.25;;;39.92;;
37955;SDS011;23776;51.592;7.180;2023-04-23T01:27:50;93.38;;;40.35;;
37955;SDS011;23776;51.592;7.180;2023-04-23T01:30:16;95.38;;;41.97;;
37955;SDS011;23776;51.592;7.180;2023-04-23T01:32:42;101.45;;;40.70;;
37955;SDS011;23776;51.592;7.180;2023-04-23T01:35:08;101.95;;;42.10;;
37955;SDS011;23776;51.592;7.180;2023-04-23T01:37:37;90.97;;;41.17;;
37955;SDS011;23776;51.592;7.180;2023-04-23T01:40:03;99.85;;;41.67;;
37955;SDS011;23776;51.592;7.180;2023-04-23T01:42:29;106.90;;;44.38;;
37955;SDS011;23776;51.592;7.180;2023-04-23T01:44:55;110.50;;;45.78;;
37955;SDS011;23776;51.592;7.180;2023-04-23T01:47:21;98.28;;;41.50;;
37955;SDS011;23776;51.592;7.180;2023-04-23T01:49:47;105.30;;;43.78;;
37955;SDS011;23776;51.592;7.180;2023-04-23T01:52:13;98.57;;;42.08;;
37955;SDS011;23776;51.592;7.180;2023-04-23T01:54:38;99.65;;;42.05;;
37955;SDS011;23776;51.592;7.180;2023-04-23T01:57:04;99.70;;;41.97;;
37955;SDS011;23776;51.592;7.180;2023-04-23T01:59:30;105.80;;;43.97;;
37955;SDS011;23776;51.592;7.180;2023-04-23T02:01:56;114.53;;;45.67;;
37955;SDS011;23776;51.592;7.180;2023-04-23T02:04:22;108.57;;;44.53;;
37955;SDS011;23776;51.592;7.180;2023-04-23T02:06:49;101.15;;;42.15;;
37955;SDS011;23776;51.592;7.180;2023-04-23T02:09:15;106.90;;;43.15;;
37955;SDS011;23776;51.592;7.180;2023-04-23T02:11:41;89.97;;;39.78;;
37955;SDS011;23776;51.592;7.180;2023-04-23T02:14:07;100.45;;;41.03;;
37955;SDS011;23776;51.592;7.180;2023-04-23T02:16:34;95.32;;;40.38;;
37955;SDS011;23776;51.592;7.180;2023-04-23T02:19:00;96.80;;;41.03;;
37955;SDS011;23776;51.592;7.180;2023-04-23T02:21:26;100.85;;;39.97;;
37955;SDS011;23776;51.592;7.180;2023-04-23T02:23:52;101.50;;;42.10;;
37955;SDS011;23776;51.592;7.180;2023-04-23T02:26:18;95.68;;;39.20;;
37955;SDS011;23776;51.592;7.180;2023-04-23T02:28:44;94.22;;;39.80;;
37955;SDS011;23776;51.592;7.180;2023-04-23T02:31:10;102.35;;;40.25;;
37955;SDS011;23776;51.592;7.180;2023-04-23T02:33:36;95.43;;;37.65;;
37955;SDS011;23776;51.592;7.180;2023-04-23T02:36:02;93.90;;;38.67;;
37955;SDS011;23776;51.592;7.180;2023-04-23T02:38:28;89.55;;;38.30;;
37955;SDS011;23776;51.592;7.180;2023-04-23T02:40:53;90.05;;;38.65;;
37955;SDS011;23776;51.592;7.180;2023-04-23T02:43:19;92.68;;;38.92;;
37955;SDS011;23776;51.592;7.180;2023-04-23T02:45:45;94.38;;;38.55;;
37955;SDS011;23776;51.592;7.180;2023-04-23T02:48:11;98.80;;;39.40;;
37955;SDS011;23776;51.592;7.180;2023-04-23T02:50:37;86.80;;;36.22;;
37955;SDS011;23776;51.592;7.180;2023-04-23T02:53:03;88.38;;;37.80;;
37955;SDS011;23776;51.592;7.180;2023-04-23T02:55:29;92.72;;;38.25;;
37955;SDS011;23776;51.592;7.180;2023-04-23T02:57:56;91.75;;;36.25;;
37955;SDS011;23776;51.592;7.180;2023-04-23T03:00:22;90.72;;;36.55;;
37955;SDS011;23776;51.592;7.180;2023-04-23T03:02:48;95.75;;;38.47;;
37955;SDS011;23776;51.592;7.180;2023-04-23T03:05:17;90.40;;;35.85;;
37955;SDS011;23776;51.592;7.180;2023-04-23T03:07:43;91.05;;;37.42;;
37955;SDS011;23776;51.592;7.180;2023-04-23T03:10:09;84.88;;;36.50;;
37955;SDS011;23776;51.592;7.180;2023-04-23T03:12:35;93.03;;;36.97;;
37955;SDS011;23776;51.592;7.180;2023-04-23T03:15:00;81.90;;;34.70;;
37955;SDS011;23776;51.592;7.180;2023-04-23T03:17:26;81.78;;;34.45;;
37955;SDS011;23776;51.592;7.180;2023-04-23T03:19:52;79.50;;;34.42;;
37955;SDS011;23776;51.592;7.180;2023-04-23T03:22:18;81.90;;;34.63;;
37955;SDS011;23776;51.592;7.180;2023-04-23T03:24:43;79.72;;;35.08;;
37955;SDS011;23776;51.592;7.180;2023-04-23T03:27:09;87.00;;;34.42;;
37955;SDS011;23776;51.592;7.180;2023-04-23T03:29:34;81.20;;;35.22;;
37955;SDS011;23776;51.592;7.180;2023-04-23T03:32:00;86.63;;;34.13;;
37955;SDS011;23776;51.592;7.180;2023-04-23T03:34:25;77.35;;;34.42;;
37955;SDS011;23776;51.592;7.180;2023-04-23T03:36:51;81.75;;;35.63;;
37955;SDS011;23776;51.592;7.180;2023-04-23T03:39:17;83.47;;;34.92;;
37955;SDS011;23776;51.592;7.180;2023-04-23T03:41:43;85.78;;;34.55;;
37955;SDS011;23776;51.592;7.180;2023-04-23T03:44:08;81.32;;;33.35;;
37955;SDS011;23776;51.592;7.180;2023-04-23T03:46:34;73.95;;;33.65;;
37955;SDS011;23776;51.592;7.180;2023-04-23T03:48:59;75.78;;;34.45;;
37955;SDS011;23776;51.592;7.180;2023-04-23T03:51:25;82.47;;;35.47;;
37955;SDS011;23776;51.592;7.180;2023-04-23T03:53:52;76.53;;;34.00;;
37955;SDS011;23776;51.592;7.180;2023-04-23T03:56:17;81.53;;;33.50;;
37955;SDS011;23776;51.592;7.180;2023-04-23T03:58:43;77.80;;;34.67;;
37955;SDS011;23776;51.592;7.180;2023-04-23T04:01:09;70.07;;;32.55;;
37955;SDS011;23776;51.592;7.180;2023-04-23T04:03:35;81.38;;;35.25;;
37955;SDS011;23776;51.592;7.180;2023-04-23T04:06:01;77.57;;;34.28;;
37955;SDS011;23776;51.592;7.180;2023-04-23T04:08:27;76.03;;;33.58;;
37955;SDS011;23776;51.592;7.180;2023-04-23T04:10:53;71.78;;;33.55;;
37955;SDS011;23776;51.592;7.180;2023-04-23T04:13:20;75.40;;;32.28;;
37955;SDS011;23776;51.592;7.180;2023-04-23T04:15:45;75.75;;;32.90;;
37955;SDS011;23776;51.592;7.180;2023-04-23T04:18:11;76.03;;;33.78;;
37955;SDS011;23776;51.592;7.180;2023-04-23T04:20:37;70.28;;;31.88;;
37955;SDS011;23776;51.592;7.180;2023-04-23T04:23:03;73.10;;;30.02;;
37955;SDS011;23776;51.592;7.180;2023-04-23T04:25:29;72.00;;;31.52;;
37955;SDS011;23776;51.592;7.180;2023-04-23T04:27:54;69.68;;;30.65;;
37955;SDS011;23776;51.592;7.180;2023-04-23T04:30:21;67.15;;;31.42;;
37955;SDS011;23776;51.592;7.180;2023-04-23T04:32:48;68.57;;;31.25;;
37955;SDS011;23776;51.592;7.180;2023-04-23T04:35:14;63.85;;;29.75;;
37955;SDS011;23776;51.592;7.180;2023-04-23T04:37:40;65.45;;;30.40;;
37955;SDS011;23776;51.592;7.180;2023-04-23T04:40:08;69.40;;;30.60;;
37955;SDS011;23776;51.592;7.180;2023-04-23T04:42:35;69.63;;;31.80;;
37955;SDS011;23776;51.592;7.180;2023-04-23T04:45:01;67.30;;;29.70;;
37955;SDS011;23776;51.592;7.180;2023-04-23T04:47:28;63.60;;;30.20;;
37955;SDS011;23776;51.592;7.180;2023-04-23T04:49:54;62.67;;;29.23;;
37955;SDS011;23776;51.592;7.180;2023-04-23T04:52:21;67.82;;;29.20;;
37955;SDS011;23776;51.592;7.180;2023-04-23T04:54:48;66.28;;;29.33;;
37955;SDS011;23776;51.592;7.180;2023-04-23T04:57:13;70.40;;;29.75;;
37955;SDS011;23776;51.592;7.180;2023-04-23T04:59:39;64.63;;;29.05;;
37955;SDS011;23776;51.592;7.180;2023-04-23T05:02:05;66.85;;;30.45;;
37955;SDS011;23776;51.592;7.180;2023-04-23T05:04:31;71.50;;;31.05;;
37955;SDS011;23776;51.592;7.180;2023-04-23T05:06:57;67.38;;;29.65;;
37955;SDS011;23776;51.592;7.180;2023-04-23T05:09:23;65.18;;;30.83;;
37955;SDS011;23776;51.592;7.180;2023-04-23T05:11:49;66.15;;;29.13;;
37955;SDS011;23776;51.592;7.180;2023-04-23T05:14:15;65.95;;;29.55;;
37955;SDS011;23776;51.592;7.180;2023-04-23T05:16:41;72.15;;;33.30;;
37955;SDS011;23776;51.592;7.180;2023-04-23T05:19:07;68.82;;;30.80;;
37955;SDS011;23776;51.592;7.180;2023-04-23T05:21:33;68.70;;;30.48;;
37955;SDS011;23776;51.592;7.180;2023-04-23T05:23:59;58.70;;;27.35;;
37955;SDS011;23776;51.592;7.180;2023-04-23T05:26:25;60.53;;;27.70;;
37955;SDS011;23776;51.592;7.180;2023-04-23T05:28:51;60.85;;;26.90;;
37955;SDS011;23776;51.592;7.180;2023-04-23T05:31:17;60.75;;;28.73;;
37955;SDS011;23776;51.592;7.180;2023-04-23T05:33:43;59.17;;;27.90;;
37955;SDS011;23776;51.592;7.180;2023-04-23T05:36:10;55.42;;;26.67;;
37955;SDS011;23776;51.592;7.180;2023-04-23T05:38:37;62.95;;;27.85;;
37955;SDS011;23776;51.592;7.180;2023-04-23T05:41:03;56.15;;;28.30;;
37955;SDS011;23776;51.592;7.180;2023-04-23T05:43:28;56.70;;;29.10;;
37955;SDS011;23776;51.592;7.180;2023-04-23T05:45:54;59.30;;;27.63;;
37955;SDS011;23776;51.592;7.180;2023-04-23T05:48:19;58.45;;;29.05;;
37955;SDS011;23776;51.592;7.180;2023-04-23T05:50:45;49.55;;;26.40;;
37955;SDS011;23776;51.592;7.180;2023-04-23T05:53:13;51.17;;;26.77;;
37955;SDS011;23776;51.592;7.180;2023-04-23T05:55:38;55.75;;;26.77;;
37955;SDS011;23776;51.592;7.180;2023-04-23T05:58:04;49.38;;;25.38;;
37955;SDS011;23776;51.592;7.180;2023-04-23T06:00:30;47.47;;;23.23;;
37955;SDS011;23776;51.592;7.180;2023-04-23T06:02:56;42.25;;;22.55;;
37955;SDS011;23776;51.592;7.180;2023-04-23T06:05:22;40.28;;;20.58;;
37955;SDS011;23776;51.592;7.180;2023-04-23T06:07:47;33.38;;;19.30;;
37955;SDS011;23776;51.592;7.180;2023-04-23T06:10:13;34.25;;;18.83;;
37955;SDS011;23776;51.592;7.180;2023-04-23T06:12:39;34.22;;;18.15;;
37955;SDS011;23776;51.592;7.180;2023-04-23T06:15:06;35.20;;;18.30;;
37955;SDS011;23776;51.592;7.180;2023-04-23T06:17:33;35.25;;;18.00;;
37955;SDS011;23776;51.592;7.180;2023-04-23T06:20:02;34.60;;;18.50;;
37955;SDS011;23776;51.592;7.180;2023-04-23T06:22:29;27.95;;;16.42;;
37955;SDS011;23776;51.592;7.180;2023-04-23T06:24:55;30.80;;;17.42;;
37955;SDS011;23776;51.592;7.180;2023-04-23T06:27:20;26.88;;;14.98;;
37955;SDS011;23776;51.592;7.180;2023-04-23T06:29:46;31.25;;;16.30;;
37955;SDS011;23776;51.592;7.180;2023-04-23T06:32:11;32.53;;;16.55;;
37955;SDS011;23776;51.592;7.180;2023-04-23T06:34:37;28.30;;;15.60;;
37955;SDS011;23776;51.592;7.180;2023-04-23T06:37:03;26.73;;;13.80;;
37955;SDS011;23776;51.592;7.180;2023-04-23T06:39:29;27.45;;;15.27;;
37955;SDS011;23776;51.592;7.180;2023-04-23T06:41:54;24.38;;;13.38;;
37955;SDS011;23776;51.592;7.180;2023-04-23T06:44:22;26.63;;;14.50;;
37955;SDS011;23776;51.592;7.180;2023-04-23T06:46:47;20.02;;;12.98;;
37955;SDS011;23776;51.592;7.180;2023-04-23T06:49:13;28.27;;;14.32;;
37955;SDS011;23776;51.592;7.180;2023-04-23T06:51:39;21.52;;;13.75;;
37955;SDS011;23776;51.592;7.180;2023-04-23T06:54:05;23.85;;;13.07;;
37955;SDS011;23776;51.592;7.180;2023-04-23T06:56:30;25.17;;;13.77;;
37955;SDS011;23776;51.592;7.180;2023-04-23T06:58:56;21.23;;;13.15;;
37955;SDS011;23776;51.592;7.180;2023-04-23T07:01:22;32.58;;;13.88;;
37955;SDS011;23776;51.592;7.180;2023-04-23T07:03:47;24.50;;;13.93;;
37955;SDS011;23776;51.592;7.180;2023-04-23T07:06:15;23.90;;;13.38;;
37955;SDS011;23776;51.592;7.180;2023-04-23T07:08:41;20.75;;;12.88;;
37955;SDS011;23776;51.592;7.180;2023-04-23T07:11:08;26.60;;;13.75;;
37955;SDS011;23776;51.592;7.180;2023-04-23T07:13:34;22.92;;;13.70;;
37955;SDS011;23776;51.592;7.180;2023-04-23T07:16:00;22.25;;;12.55;;
37955;SDS011;23776;51.592;7.180;2023-04-23T07:18:26;23.33;;;12.80;;
37955;SDS011;23776;51.592;7.180;2023-04-23T07:20:52;20.55;;;13.13;;
37955;SDS011;23776;51.592;7.180;2023-04-23T07:23:17;24.42;;;13.00;;
37955;SDS011;23776;51.592;7.180;2023-04-23T07:25:43;21.00;;;12.27;;
37955;SDS011;23776;51.592;7.180;2023-04-23T07:28:09;18.52;;;11.60;;
37955;SDS011;23776;51.592;7.180;2023-04-23T07:30:34;21.80;;;11.60;;
37955;SDS011;23776;51.592;7.180;2023-04-23T07:33:00;17.05;;;10.82;;
37955;SDS011;23776;51.592;7.180;2023-04-23T07:35:26;19.45;;;11.20;;
37955;SDS011;23776;51.592;7.180;2023-04-23T07:37:52;23.45;;;11.35;;
37955;SDS011;23776;51.592;7.180;2023-04-23T07:40:23;19.48;;;11.50;;
37955;SDS011;23776;51.592;7.180;2023-04-23T07:42:49;21.88;;;11.98;;
37955;SDS011;23776;51.592;7.180;2023-04-23T07:45:16;25.88;;;10.75;;
37955;SDS011;23776;51.592;7.180;2023-04-23T07:47:42;18.13;;;10.57;;
37955;SDS011;23776;51.592;7.180;2023-04-23T07:50:09;16.15;;;9.48;;
37955;SDS011;23776;51.592;7.180;2023-04-23T07:52:35;18.15;;;9.45;;
37955;SDS011;23776;51.592;7.180;2023-04-23T07:55:01;17.27;;;9.52;;
37955;SDS011;23776;51.592;7.180;2023-04-23T07:57:26;16.65;;;8.77;;
37955;SDS011;23776;51.592;7.180;2023-04-23T07:59:52;16.30;;;8.43;;
37955;SDS011;23776;51.592;7.180;2023-04-23T08:02:17;15.80;;;8.50;;
37955;SDS011;23776;51.592;7.180;2023-04-23T08:04:47;14.88;;;8.18;;
37955;SDS011;23776;51.592;7.180;2023-04-23T08:07:13;13.18;;;7.85;;
37955;SDS011;23776;51.592;7.180;2023-04-23T08:09:39;18.38;;;9.05;;
37955;SDS011;23776;51.592;7.180;2023-04-23T08:12:04;12.73;;;6.43;;
37955;SDS011;23776;51.592;7.180;2023-04-23T08:14:30;9.55;;;6.60;;
37955;SDS011;23776;51.592;7.180;2023-04-23T08:16:56;11.98;;;6.32;;
37955;SDS011;23776;51.592;7.180;2023-04-23T08:19:21;12.88;;;7.00;;
37955;SDS011;23776;51.592;7.180;2023-04-23T08:21:47;14.15;;;6.57;;
37955;SDS011;23776;51.592;7.180;2023-04-23T08:24:13;13.88;;;5.72;;
37955;SDS011;23776;51.592;7.180;2023-04-23T08:26:39;15.07;;;6.18;;
37955;SDS011;23776;51.592;7.180;2023-04-23T08:29:04;12.23;;;6.45;;
37955;SDS011;23776;51.592;7.180;2023-04-23T08:31:30;12.57;;;5.68;;
37955;SDS011;23776;51.592;7.180;2023-04-23T08:33:56;10.80;;;5.50;;
37955;SDS011;23776;51.592;7.180;2023-04-23T08:36:22;13.75;;;5.55;;
37955;SDS011;23776;51.592;7.180;2023-04-23T08:38:48;11.20;;;5.85;;
37955;SDS011;23776;51.592;7.180;2023-04-23T08:41:14;9.48;;;5.32;;
37955;SDS011;23776;51.592;7.180;2023-04-23T08:43:46;10.68;;;5.18;;
37955;SDS011;23776;51.592;7.180;2023-04-23T08:46:25;9.75;;;5.13;;
37955;SDS011;23776;51.592;7.180;2023-04-23T08:48:55;9.02;;;4.90;;
37955;SDS011;23776;51.592;7.180;2023-04-23T08:51:24;9.07;;;4.50;;
37955;SDS011;23776;51.592;7.180;2023-04-23T08:53:53;8.40;;;4.57;;
37955;SDS011;23776;51.592;7.180;2023-04-23T08:56:28;12.10;;;5.18;;
37955;SDS011;23776;51.592;7.180;2023-04-23T08:58:54;9.05;;;4.38;;
37955;SDS011;23776;51.592;7.180;2023-04-23T09:01:20;8.98;;;4.18;;
37955;SDS011;23776;51.592;7.180;2023-04-23T09:03:46;12.05;;;5.00;;
37955;SDS011;23776;51.592;7.180;2023-04-23T09:06:12;13.13;;;4.80;;
37955;SDS011;23776;51.592;7.180;2023-04-23T09:08:37;8.07;;;3.88;;
37955;SDS011;23776;51.592;7.180;2023-04-23T09:11:03;6.00;;;3.28;;
37955;SDS011;23776;51.592;7.180;2023-04-23T09:13:29;12.25;;;3.67;;
37955;SDS011;23776;51.592;7.180;2023-04-23T09:15:56;10.48;;;3.38;;
37955;SDS011;23776;51.592;7.180;2023-04-23T09:18:21;10.68;;;3.58;;
37955;SDS011;23776;51.592;7.180;2023-04-23T09:20:47;12.88;;;3.03;;
37955;SDS011;23776;51.592;7.180;2023-04-23T09:23:14;11.75;;;3.00;;
37955;SDS011;23776;51.592;7.180;2023-04-23T09:25:40;11.98;;;3.78;;
37955;SDS011;23776;51.592;7.180;2023-04-23T09:28:06;12.52;;;3.35;;
37955;SDS011;23776;51.592;7.180;2023-04-23T09:30:38;11.75;;;3.45;;
37955;SDS011;23776;51.592;7.180;2023-04-23T09:33:04;6.47;;;2.63;;
37955;SDS011;23776;51.592;7.180;2023-04-23T09:35:31;7.20;;;3.10;;
37955;SDS011;23776;51.592;7.180;2023-04-23T09:37:59;5.78;;;2.80;;
37955;SDS011;23776;51.592;7.180;2023-04-23T09:40:29;13.50;;;4.38;;
37955;SDS011;23776;51.592;7.180;2023-04-23T09:42:55;9.65;;;3.33;;
37955;SDS011;23776;51.592;7.180;2023-04-23T09:45:22;5.90;;;2.83;;
37955;SDS011;23776;51.592;7.180;2023-04-23T09:47:54;5.97;;;2.72;;
37955;SDS011;23776;51.592;7.180;2023-04-23T09:50:31;8.18;;;2.60;;
37955;SDS011;23776;51.592;7.180;2023-04-23T09:52:57;8.35;;;3.22;;
37955;SDS011;23776;51.592;7.180;2023-04-23T09:55:33;10.13;;;3.15;;
37955;SDS011;23776;51.592;7.180;2023-04-23T09:58:09;7.78;;;3.72;;
37955;SDS011;23776;51.592;7.180;2023-04-23T10:00:39;7.30;;;2.80;;
37955;SDS011;23776;51.592;7.180;2023-04-23T10:03:05;8.82;;;3.15;;
37955;SDS011;23776;51.592;7.180;2023-04-23T10:05:36;7.82;;;2.83;;
37955;SDS011;23776;51.592;7.180;2023-04-23T10:08:06;5.45;;;2.30;;
37955;SDS011;23776;51.592;7.180;2023-04-23T10:10:32;9.25;;;2.70;;
37955;SDS011;23776;51.592;7.180;2023-04-23T10:13:00;8.48;;;2.10;;
37955;SDS011;23776;51.592;7.180;2023-04-23T10:15:26;6.55;;;2.10;;
37955;SDS011;23776;51.592;7.180;2023-04-23T10:17:52;9.40;;;2.67;;
37955;SDS011;23776;51.592;7.180;2023-04-23T10:20:20;6.07;;;2.75;;
37955;SDS011;23776;51.592;7.180;2023-04-23T10:22:46;6.00;;;2.58;;
37955;SDS011;23776;51.592;7.180;2023-04-23T10:25:13;6.75;;;2.65;;
37955;SDS011;23776;51.592;7.180;2023-04-23T10:27:40;5.63;;;2.55;;
37955;SDS011;23776;51.592;7.180;2023-04-23T10:30:08;7.30;;;2.38;;
37955;SDS011;23776;51.592;7.180;2023-04-23T10:32:35;4.93;;;2.42;;
37955;SDS011;23776;51.592;7.180;2023-04-23T10:35:02;5.20;;;2.10;;
37955;SDS011;23776;51.592;7.180;2023-04-23T10:37:29;6.45;;;1.92;;
37955;SDS011;23776;51.592;7.180;2023-04-23T10:39:55;6.00;;;2.10;;
37955;SDS011;23776;51.592;7.180;2023-04-23T10:42:28;5.07;;;3.28;;
37955;SDS011;23776;51.592;7.180;2023-04-23T10:44:54;5.50;;;2.78;;
37955;SDS011;23776;51.592;7.180;2023-04-23T10:47:23;4.75;;;2.40;;
37955;SDS011;23776;51.592;7.180;2023-04-23T10:49:48;7.65;;;2.47;;
37955;SDS011;23776;51.592;7.180;2023-04-23T10:52:16;5.45;;;2.20;;
37955;SDS011;23776;51.592;7.180;2023-04-23T10:54:43;5.90;;;2.30;;
37955;SDS011;23776;51.592;7.180;2023-04-23T10:57:12;4.25;;;2.00;;
37955;SDS011;23776;51.592;7.180;2023-04-23T10:59:51;4.90;;;1.92;;
37955;SDS011;23776;51.592;7.180;2023-04-23T11:02:18;4.50;;;2.25;;
37955;SDS011;23776;51.592;7.180;2023-04-23T11:04:45;7.13;;;2.30;;
37955;SDS011;23776;51.592;7.180;2023-04-23T11:07:24;5.10;;;2.67;;
37955;SDS011;23776;51.592;7.180;2023-04-23T11:09:53;6.78;;;2.55;;
37955;SDS011;23776;51.592;7.180;2023-04-23T11:14:49;7.25;;;2.42;;
37955;SDS011;23776;51.592;7.180;2023-04-23T11:17:16;3.35;;;2.00;;
37955;SDS011;23776;51.592;7.180;2023-04-23T11:22:50;7.32;;;2.00;;
37955;SDS011;23776;51.592;7.180;2023-04-23T11:25:23;8.13;;;1.92;;
37955;SDS011;23776;51.592;7.180;2023-04-23T11:30:21;4.30;;;1.88;;
37955;SDS011;23776;51.592;7.180;2023-04-23T11:32:49;5.97;;;2.30;;
37955;SDS011;23776;51.592;7.180;2023-04-23T11:35:17;3.88;;;2.40;;
37955;SDS011;23776;51.592;7.180;2023-04-23T11:37:47;8.30;;;2.53;;
37955;SDS011;23776;51.592;7.180;2023-04-23T11:40:14;2.38;;;1.83;;
37955;SDS011;23776;51.592;7.180;2023-04-23T11:42:47;3.63;;;2.13;;
37955;SDS011;23776;51.592;7.180;2023-04-23T11:45:16;3.40;;;2.15;;
37955;SDS011;23776;51.592;7.180;2023-04-23T11:48:00;6.68;;;3.33;;
37955;SDS011;23776;51.592;7.180;2023-04-23T11:50:29;6.78;;;2.33;;
37955;SDS011;23776;51.592;7.180;2023-04-23T11:52:57;8.55;;;2.47;;
37955;SDS011;23776;51.592;7.180;2023-04-23T11:55:33;3.70;;;2.50;;
37955;SDS011;23776;51.592;7.180;2023-04-23T11:57:58;6.05;;;2.60;;
37955;SDS011;23776;51.592;7.180;2023-04-23T12:00:25;6.20;;;2.40;;
37955;SDS011;23776;51.592;7.180;2023-04-23T12:05:33;10.83;;;3.23;;
37955;SDS011;23776;51.592;7.180;2023-04-23T12:10:43;8.80;;;2.88;;
37955;SDS011;23776;51.592;7.180;2023-04-23T12:13:16;6.25;;;2.90;;
37955;SDS011;23776;51.592;7.180;2023-04-23T12:15:54;7.15;;;3.10;;
37955;SDS011;23776;51.592;7.180;2023-04-23T12:18:26;6.00;;;2.95;;
37955;SDS011;23776;51.592;7.180;2023-04-23T12:20:52;11.65;;;3.35;;
37955;SDS011;23776;51.592;7.180;2023-04-23T12:23:18;14.00;;;4.30;;
37955;SDS011;23776;51.592;7.180;2023-04-23T12:25:51;10.35;;;4.13;;
37955;SDS011;23776;51.592;7.180;2023-04-23T12:28:21;9.95;;;4.20;;
37955;SDS011;23776;51.592;7.180;2023-04-23T12:30:47;7.22;;;3.40;;
37955;SDS011;23776;51.592;7.180;2023-04-23T12:33:13;12.00;;;3.20;;
37955;SDS011;23776;51.592;7.180;2023-04-23T12:35:39;5.80;;;3.40;;
37955;SDS011;23776;51.592;7.180;2023-04-23T12:38:06;4.15;;;2.08;;
37955;SDS011;23776;51.592;7.180;2023-04-23T12:40:32;4.25;;;2.08;;
37955;SDS011;23776;51.592;7.180;2023-04-23T12:42:58;6.47;;;1.80;;
37955;SDS011;23776;51.592;7.180;2023-04-23T12:45:24;2.55;;;1.67;;
37955;SDS011;23776;51.592;7.180;2023-04-23T12:47:49;6.20;;;2.20;;
37955;SDS011;23776;51.592;7.180;2023-04-23T12:50:15;5.15;;;2.08;;
37955;SDS011;23776;51.592;7.180;2023-04-23T12:52:41;5.05;;;1.83;;
37955;SDS011;23776;51.592;7.180;2023-04-23T12:55:07;4.15;;;2.40;;
37955;SDS011;23776;51.592;7.180;2023-04-23T12:57:33;5.22;;;2.25;;
37955;SDS011;23776;51.592;7.180;2023-04-23T12:59:58;4.50;;;1.92;;
37955;SDS011;23776;51.592;7.180;2023-04-23T13:02:24;6.45;;;2.28;;
37955;SDS011;23776;51.592;7.180;2023-04-23T13:04:50;6.78;;;1.98;;
37955;SDS011;23776;51.592;7.180;2023-04-23T13:07:15;3.38;;;1.92;;
37955;SDS011;23776;51.592;7.180;2023-04-23T13:09:41;7.38;;;1.70;;
37955;SDS011;23776;51.592;7.180;2023-04-23T13:12:07;6.32;;;2.28;;
37955;SDS011;23776;51.592;7.180;2023-04-23T13:14:33;3.35;;;1.48;;
37955;SDS011;23776;51.592;7.180;2023-04-23T13:16:58;6.65;;;1.52;;
37955;SDS011;23776;51.592;7.180;2023-04-23T13:19:24;5.88;;;1.65;;
37955;SDS011;23776;51.592;7.180;2023-04-23T13:21:50;6.07;;;2.10;;
37955;SDS011;23776;51.592;7.180;2023-04-23T13:24:16;3.65;;;1.83;;
37955;SDS011;23776;51.592;7.180;2023-04-23T13:26:41;4.38;;;1.42;;
37955;SDS011;23776;51.592;7.180;2023-04-23T13:29:07;4.53;;;1.67;;
37955;SDS011;23776;51.592;7.180;2023-04-23T13:31:33;4.13;;;1.60;;
37955;SDS011;23776;51.592;7.180;2023-04-23T13:33:58;3.80;;;1.60;;
37955;SDS011;23776;51.592;7.180;2023-04-23T13:36:26;4.05;;;1.83;;
37955;SDS011;23776;51.592;7.180;2023-04-23T13:38:52;1.38;;;0.90;;
37955;SDS011;23776;51.592;7.180;2023-04-23T13:41:18;3.42;;;0.88;;
37955;SDS011;23776;51.592;7.180;2023-04-23T13:43:43;4.15;;;1.13;;
37955;SDS011;23776;51.592;7.180;2023-04-23T13:46:09;2.97;;;1.10;;
37955;SDS011;23776;51.592;7.180;2023-04-23T13:48:35;2.53;;;0.80;;
37955;SDS011;23776;51.592;7.180;2023-04-23T13:51:01;4.85;;;1.08;;
37955;SDS011;23776;51.592;7.180;2023-04-23T13:53:26;4.25;;;1.33;;
37955;SDS011;23776;51.592;7.180;2023-04-23T13:55:53;3.88;;;1.00;;
37955;SDS011;23776;51.592;7.180;2023-04-23T13:58:20;1.88;;;0.80;;
37955;SDS011;23776;51.592;7.180;2023-04-23T14:00:47;3.17;;;1.10;;
37955;SDS011;23776;51.592;7.180;2023-04-23T14:03:13;9.68;;;0.98;;
37955;SDS011;23776;51.592;7.180;2023-04-23T14:05:39;4.75;;;0.90;;
37955;SDS011;23776;51.592;7.180;2023-04-23T14:08:04;4.65;;;1.10;;
37955;SDS011;23776;51.592;7.180;2023-04-23T14:10:30;1.00;;;0.90;;
37955;SDS011;23776;51.592;7.180;2023-04-23T14:12:56;3.63;;;1.00;;
37955;SDS011;23776;51.592;7.180;2023-04-23T14:15:21;5.35;;;1.20;;
37955;SDS011;23776;51.592;7.180;2023-04-23T14:17:47;3.65;;;1.10;;
37955;SDS011;23776;51.592;7.180;2023-04-23T14:20:13;2.53;;;1.13;;
37955;SDS011;23776;51.592;7.180;2023-04-23T14:22:39;3.88;;;1.42;;
37955;SDS011;23776;51.592;7.180;2023-04-23T14:25:23;1.83;;;1.00;;
37955;SDS011;23776;51.592;7.180;2023-04-23T14:28:28;3.38;;;0.95;;
37955;SDS011;23776;51.592;7.180;2023-04-23T14:30:59;6.53;;;1.10;;
37955;SDS011;23776;51.592;7.180;2023-04-23T14:33:26;1.52;;;1.10;;
37955;SDS011;23776;51.592;7.180;2023-04-23T14:35:51;3.92;;;0.90;;
37955;SDS011;23776;51.592;7.180;2023-04-23T14:38:17;1.65;;;0.80;;
37955;SDS011;23776;51.592;7.180;2023-04-23T14:40:43;2.65;;;1.35;;
37955;SDS011;23776;51.592;7.180;2023-04-23T14:43:09;5.10;;;0.60;;